sensor_id;sensor_type;location;lat;lon;timestamp;P1;durP1;ratioP1;P2;durP2;ratioP2
1020;SDS011;499;42.648;23.270;2023-12-29T00:00:42;10.13;;;6.53;;
1020;SDS011;499;42.648;23.270;2023-12-29T00:03:35;5.23;;;4.60;;
1020;SDS011;499;42.648;23.270;2023-12-29T00:06:22;5.53;;;5.03;;
1020;SDS011;499;42.648;23.270;2023-12-29T00:09:07;6.73;;;4.83;;
1020;SDS011;499;42.648;23.270;2023-12-29T00:12:28;8.17;;;5.37;;
1020;SDS011;499;42.648;23.270;2023-12-29T00:15:19;5.83;;;5.23;;
1020;SDS011;499;42.648;23.270;2023-12-29T00:18:21;6.43;;;4.50;;
1020;SDS011;499;42.648;23.270;2023-12-29T00:21:25;6.47;;;3.83;;
1020;SDS011;499;42.648;23.270;2023-12-29T00:24:38;4.20;;;3.80;;
1020;SDS011;499;42.648;23.270;2023-12-29T00:31:27;9.27;;;5.13;;
1020;SDS011;499;42.648;23.270;2023-12-29T00:38:08;7.13;;;4.20;;
1020;SDS011;499;42.648;23.270;2023-12-29T00:41:18;7.63;;;4.20;;
1020;SDS011;499;42.648;23.270;2023-12-29T00:44:26;4.57;;;4.13;;
1020;SDS011;499;42.648;23.270;2023-12-29T00:47:34;11.73;;;6.50;;
1020;SDS011;499;42.648;23.270;2023-12-29T00:50:43;9.53;;;5.70;;
1020;SDS011;499;42.648;23.270;2023-12-29T01:00:17;5.07;;;3.60;;
1020;SDS011;499;42.648;23.270;2023-12-29T01:10:03;5.77;;;4.80;;
1020;SDS011;499;42.648;23.270;2023-12-29T01:12:53;6.57;;;4.53;;
1020;SDS011;499;42.648;23.270;2023-12-29T01:16:12;7.13;;;6.10;;
1020;SDS011;499;42.648;23.270;2023-12-29T01:35:52;5.20;;;4.10;;
1020;SDS011;499;42.648;23.270;2023-12-29T01:38:44;11.70;;;8.50;;
1020;SDS011;499;42.648;23.270;2023-12-29T01:45:28;18.07;;;8.67;;
1020;SDS011;499;42.648;23.270;2023-12-29T01:51:33;4.60;;;3.57;;
1020;SDS011;499;42.648;23.270;2023-12-29T02:00:52;7.60;;;4.57;;
1020;SDS011;499;42.648;23.270;2023-12-29T02:03:40;7.30;;;5.87;;
1020;SDS011;499;42.648;23.270;2023-12-29T02:06:26;8.63;;;5.33;;
1020;SDS011;499;42.648;23.270;2023-12-29T02:09:27;8.90;;;5.17;;
1020;SDS011;499;42.648;23.270;2023-12-29T02:12:12;8.30;;;5.57;;
1020;SDS011;499;42.648;23.270;2023-12-29T02:15:03;10.80;;;5.63;;
1020;SDS011;499;42.648;23.270;2023-12-29T02:18:03;6.10;;;5.10;;
1020;SDS011;499;42.648;23.270;2023-12-29T02:24:53;4.80;;;3.10;;
1020;SDS011;499;42.648;23.270;2023-12-29T02:27:49;5.50;;;4.03;;
1020;SDS011;499;42.648;23.270;2023-12-29T02:31:08;4.03;;;3.00;;
1020;SDS011;499;42.648;23.270;2023-12-29T02:34:17;4.30;;;3.60;;
1020;SDS011;499;42.648;23.270;2023-12-29T02:37:21;5.77;;;4.23;;
1020;SDS011;499;42.648;23.270;2023-12-29T02:40:28;9.93;;;7.27;;
1020;SDS011;499;42.648;23.270;2023-12-29T02:52:30;4.27;;;3.87;;
1020;SDS011;499;42.648;23.270;2023-12-29T03:12:18;7.00;;;4.30;;
1020;SDS011;499;42.648;23.270;2023-12-29T03:15:02;6.77;;;4.93;;
1020;SDS011;499;42.648;23.270;2023-12-29T03:24:38;6.27;;;4.27;;
1020;SDS011;499;42.648;23.270;2023-12-29T03:27:34;6.73;;;5.40;;
1020;SDS011;499;42.648;23.270;2023-12-29T03:30:38;12.93;;;6.90;;
1020;SDS011;499;42.648;23.270;2023-12-29T03:40:26;13.63;;;7.47;;
1020;SDS011;499;42.648;23.270;2023-12-29T03:46:25;7.30;;;5.97;;
1020;SDS011;499;42.648;23.270;2023-12-29T03:49:33;4.73;;;4.03;;
1020;SDS011;499;42.648;23.270;2023-12-29T03:55:58;6.30;;;5.10;;
1020;SDS011;499;42.648;23.270;2023-12-29T03:59:02;5.00;;;3.47;;
1020;SDS011;499;42.648;23.270;2023-12-29T04:01:49;7.60;;;4.27;;
1020;SDS011;499;42.648;23.270;2023-12-29T04:04:26;5.73;;;4.17;;
1020;SDS011;499;42.648;23.270;2023-12-29T04:07:26;11.73;;;7.67;;
1020;SDS011;499;42.648;23.270;2023-12-29T04:13:58;8.60;;;6.00;;
1020;SDS011;499;42.648;23.270;2023-12-29T04:16:37;4.80;;;4.23;;
1020;SDS011;499;42.648;23.270;2023-12-29T04:19:40;7.60;;;6.27;;
1020;SDS011;499;42.648;23.270;2023-12-29T04:28:55;17.13;;;12.07;;
1020;SDS011;499;42.648;23.270;2023-12-29T04:31:59;13.67;;;9.10;;
1020;SDS011;499;42.648;23.270;2023-12-29T04:35:12;8.10;;;5.63;;
1020;SDS011;499;42.648;23.270;2023-12-29T04:38:20;14.77;;;11.53;;
1020;SDS011;499;42.648;23.270;2023-12-29T04:51:22;3.83;;;3.53;;
1020;SDS011;499;42.648;23.270;2023-12-29T04:57:32;4.80;;;4.40;;
1020;SDS011;499;42.648;23.270;2023-12-29T05:04:24;5.40;;;4.00;;
1020;SDS011;499;42.648;23.270;2023-12-29T05:07:06;6.37;;;4.87;;
1020;SDS011;499;42.648;23.270;2023-12-29T05:13:40;5.93;;;3.37;;
1020;SDS011;499;42.648;23.270;2023-12-29T05:20:05;5.70;;;4.40;;
1020;SDS011;499;42.648;23.270;2023-12-29T05:26:11;6.50;;;4.50;;
1020;SDS011;499;42.648;23.270;2023-12-29T05:29:10;4.03;;;3.60;;
1020;SDS011;499;42.648;23.270;2023-12-29T05:32:24;4.50;;;3.80;;
1020;SDS011;499;42.648;23.270;2023-12-29T05:38:30;5.10;;;4.60;;
1020;SDS011;499;42.648;23.270;2023-12-29T05:41:35;3.70;;;3.40;;
1020;SDS011;499;42.648;23.270;2023-12-29T05:44:42;19.20;;;4.57;;
1020;SDS011;499;42.648;23.270;2023-12-29T05:47:13;5.27;;;4.47;;
1020;SDS011;499;42.648;23.270;2023-12-29T05:50:01;4.30;;;3.67;;
1020;SDS011;499;42.648;23.270;2023-12-29T05:56:07;15.30;;;13.50;;
1020;SDS011;499;42.648;23.270;2023-12-29T05:58:55;10.30;;;9.30;;
1020;SDS011;499;42.648;23.270;2023-12-29T06:05:00;14.30;;;8.07;;
1020;SDS011;499;42.648;23.270;2023-12-29T06:07:37;14.27;;;9.93;;
1020;SDS011;499;42.648;23.270;2023-12-29T06:10:13;10.70;;;8.60;;
1020;SDS011;499;42.648;23.270;2023-12-29T06:16:24;5.97;;;4.50;;
1020;SDS011;499;42.648;23.270;2023-12-29T06:19:25;9.20;;;6.93;;
1020;SDS011;499;42.648;23.270;2023-12-29T06:22:17;7.27;;;6.10;;
1020;SDS011;499;42.648;23.270;2023-12-29T06:25:29;9.37;;;6.80;;
1020;SDS011;499;42.648;23.270;2023-12-29T06:28:49;10.33;;;6.13;;
1020;SDS011;499;42.648;23.270;2023-12-29T06:31:30;6.17;;;4.67;;
1020;SDS011;499;42.648;23.270;2023-12-29T06:34:25;5.63;;;4.60;;
1020;SDS011;499;42.648;23.270;2023-12-29T06:36:55;6.17;;;4.70;;
1020;SDS011;499;42.648;23.270;2023-12-29T06:39:34;12.30;;;8.87;;
1020;SDS011;499;42.648;23.270;2023-12-29T06:42:21;11.33;;;8.53;;
1020;SDS011;499;42.648;23.270;2023-12-29T06:51:44;23.10;;;13.53;;
1020;SDS011;499;42.648;23.270;2023-12-29T06:54:45;20.20;;;14.37;;
1020;SDS011;499;42.648;23.270;2023-12-29T06:57:20;15.93;;;11.60;;
1020;SDS011;499;42.648;23.270;2023-12-29T07:00:14;22.30;;;13.30;;
1020;SDS011;499;42.648;23.270;2023-12-29T07:06:34;8.20;;;5.67;;
1020;SDS011;499;42.648;23.270;2023-12-29T07:09:30;8.13;;;6.23;;
1020;SDS011;499;42.648;23.270;2023-12-29T07:19:19;11.37;;;10.17;;
1020;SDS011;499;42.648;23.270;2023-12-29T07:25:40;10.50;;;7.67;;
1020;SDS011;499;42.648;23.270;2023-12-29T07:28:45;10.67;;;9.10;;
1020;SDS011;499;42.648;23.270;2023-12-29T07:31:48;17.33;;;12.97;;
1020;SDS011;499;42.648;23.270;2023-12-29T07:41:47;23.23;;;16.60;;
1020;SDS011;499;42.648;23.270;2023-12-29T07:44:44;35.30;;;22.20;;
1020;SDS011;499;42.648;23.270;2023-12-29T07:47:42;28.07;;;19.37;;
1020;SDS011;499;42.648;23.270;2023-12-29T07:51:06;28.87;;;21.73;;
1020;SDS011;499;42.648;23.270;2023-12-29T07:53:55;35.30;;;25.20;;
1020;SDS011;499;42.648;23.270;2023-12-29T07:59:56;26.83;;;19.53;;
1020;SDS011;499;42.648;23.270;2023-12-29T08:02:48;27.57;;;19.10;;
1020;SDS011;499;42.648;23.270;2023-12-29T08:05:34;20.87;;;16.73;;
1020;SDS011;499;42.648;23.270;2023-12-29T08:08:15;28.60;;;17.77;;
1020;SDS011;499;42.648;23.270;2023-12-29T08:11:05;30.77;;;21.80;;
1020;SDS011;499;42.648;23.270;2023-12-29T08:17:12;25.00;;;17.10;;
1020;SDS011;499;42.648;23.270;2023-12-29T08:23:04;22.33;;;16.40;;
1020;SDS011;499;42.648;23.270;2023-12-29T08:29:23;34.70;;;25.33;;
1020;SDS011;499;42.648;23.270;2023-12-29T08:32:42;45.23;;;27.13;;
1020;SDS011;499;42.648;23.270;2023-12-29T08:35:47;29.70;;;21.83;;
1020;SDS011;499;42.648;23.270;2023-12-29T08:38:56;37.67;;;27.87;;
1020;SDS011;499;42.648;23.270;2023-12-29T08:42:06;43.77;;;32.90;;
1020;SDS011;499;42.648;23.270;2023-12-29T08:45:02;46.37;;;32.03;;
1020;SDS011;499;42.648;23.270;2023-12-29T08:51:32;47.60;;;34.20;;
1020;SDS011;499;42.648;23.270;2023-12-29T08:57:41;52.17;;;37.50;;
1020;SDS011;499;42.648;23.270;2023-12-29T09:00:35;46.90;;;34.80;;
1020;SDS011;499;42.648;23.270;2023-12-29T09:03:17;51.53;;;37.80;;
1020;SDS011;499;42.648;23.270;2023-12-29T09:05:55;56.03;;;41.33;;
1020;SDS011;499;42.648;23.270;2023-12-29T09:11:42;67.63;;;41.93;;
1020;SDS011;499;42.648;23.270;2023-12-29T09:20:58;50.83;;;40.83;;
1020;SDS011;499;42.648;23.270;2023-12-29T09:27:12;56.80;;;40.00;;
1020;SDS011;499;42.648;23.270;2023-12-29T09:29:50;51.93;;;39.13;;
1020;SDS011;499;42.648;23.270;2023-12-29T09:32:57;57.80;;;41.70;;
1020;SDS011;499;42.648;23.270;2023-12-29T09:35:58;61.80;;;39.07;;
1020;SDS011;499;42.648;23.270;2023-12-29T09:38:39;51.93;;;38.97;;
1020;SDS011;499;42.648;23.270;2023-12-29T09:41:59;53.77;;;35.33;;
1020;SDS011;499;42.648;23.270;2023-12-29T09:48:31;45.33;;;30.87;;
1020;SDS011;499;42.648;23.270;2023-12-29T09:51:24;44.93;;;30.97;;
1020;SDS011;499;42.648;23.270;2023-12-29T10:04:16;32.80;;;23.80;;
1020;SDS011;499;42.648;23.270;2023-12-29T10:07:35;40.63;;;25.30;;
1020;SDS011;499;42.648;23.270;2023-12-29T10:10:29;34.90;;;22.10;;
1020;SDS011;499;42.648;23.270;2023-12-29T10:13:23;30.00;;;21.60;;
1020;SDS011;499;42.648;23.270;2023-12-29T10:16:31;31.67;;;22.40;;
1020;SDS011;499;42.648;23.270;2023-12-29T10:19:42;31.47;;;23.83;;
1020;SDS011;499;42.648;23.270;2023-12-29T10:23:08;31.10;;;23.70;;
1020;SDS011;499;42.648;23.270;2023-12-29T10:29:49;34.73;;;25.63;;
1020;SDS011;499;42.648;23.270;2023-12-29T10:32:52;29.23;;;23.60;;
1020;SDS011;499;42.648;23.270;2023-12-29T10:35:41;36.40;;;24.60;;
1020;SDS011;499;42.648;23.270;2023-12-29T10:38:44;39.43;;;24.30;;
1020;SDS011;499;42.648;23.270;2023-12-29T10:41:49;30.40;;;22.73;;
1020;SDS011;499;42.648;23.270;2023-12-29T10:44:53;30.73;;;22.37;;
1020;SDS011;499;42.648;23.270;2023-12-29T10:47:40;28.30;;;24.03;;
1020;SDS011;499;42.648;23.270;2023-12-29T10:50:35;34.10;;;24.60;;
1020;SDS011;499;42.648;23.270;2023-12-29T10:53:26;36.50;;;27.97;;
1020;SDS011;499;42.648;23.270;2023-12-29T11:02:52;35.23;;;26.90;;
1020;SDS011;499;42.648;23.270;2023-12-29T11:05:46;38.60;;;29.77;;
1020;SDS011;499;42.648;23.270;2023-12-29T11:14:53;30.70;;;26.23;;
1020;SDS011;499;42.648;23.270;2023-12-29T11:17:45;34.60;;;25.87;;
1020;SDS011;499;42.648;23.270;2023-12-29T11:20:23;33.47;;;26.10;;
1020;SDS011;499;42.648;23.270;2023-12-29T11:23:09;29.67;;;24.43;;
1020;SDS011;499;42.648;23.270;2023-12-29T11:26:13;35.77;;;26.97;;
1020;SDS011;499;42.648;23.270;2023-12-29T11:29:14;32.90;;;26.57;;
1020;SDS011;499;42.648;23.270;2023-12-29T11:35:41;41.30;;;27.70;;
1020;SDS011;499;42.648;23.270;2023-12-29T11:49:32;17.63;;;15.10;;
1020;SDS011;499;42.648;23.270;2023-12-29T12:02:50;32.43;;;22.97;;
1020;SDS011;499;42.648;23.270;2023-12-29T12:06:00;28.70;;;20.10;;
1020;SDS011;499;42.648;23.270;2023-12-29T12:32:30;27.47;;;19.50;;
1020;SDS011;499;42.648;23.270;2023-12-29T12:35:31;22.60;;;17.70;;
1020;SDS011;499;42.648;23.270;2023-12-29T12:38:16;22.20;;;16.80;;
1020;SDS011;499;42.648;23.270;2023-12-29T12:40:53;18.37;;;16.47;;
1020;SDS011;499;42.648;23.270;2023-12-29T12:44:03;20.23;;;16.70;;
1020;SDS011;499;42.648;23.270;2023-12-29T12:47:36;17.90;;;13.80;;
1020;SDS011;499;42.648;23.270;2023-12-29T12:50:27;16.20;;;13.37;;
1020;SDS011;499;42.648;23.270;2023-12-29T12:59:44;18.00;;;10.57;;
1020;SDS011;499;42.648;23.270;2023-12-29T13:12:32;13.10;;;10.70;;
1020;SDS011;499;42.648;23.270;2023-12-29T13:19:11;11.37;;;9.70;;
1020;SDS011;499;42.648;23.270;2023-12-29T13:22:35;14.90;;;8.90;;
1020;SDS011;499;42.648;23.270;2023-12-29T13:25:27;13.90;;;9.93;;
1020;SDS011;499;42.648;23.270;2023-12-29T13:28:31;11.53;;;8.93;;
1020;SDS011;499;42.648;23.270;2023-12-29T13:31:41;11.47;;;9.90;;
1020;SDS011;499;42.648;23.270;2023-12-29T13:34:52;10.73;;;9.00;;
1020;SDS011;499;42.648;23.270;2023-12-29T13:37:58;12.13;;;8.90;;
1020;SDS011;499;42.648;23.270;2023-12-29T13:41:07;7.73;;;6.07;;
1020;SDS011;499;42.648;23.270;2023-12-29T13:44:12;9.00;;;6.33;;
1020;SDS011;499;42.648;23.270;2023-12-29T13:47:00;10.20;;;7.27;;
1020;SDS011;499;42.648;23.270;2023-12-29T13:49:56;8.30;;;6.67;;
1020;SDS011;499;42.648;23.270;2023-12-29T13:52:42;7.50;;;5.93;;
1020;SDS011;499;42.648;23.270;2023-12-29T13:55:32;7.73;;;5.80;;
1020;SDS011;499;42.648;23.270;2023-12-29T13:58:33;9.53;;;6.50;;
1020;SDS011;499;42.648;23.270;2023-12-29T14:01:24;7.53;;;5.80;;
1020;SDS011;499;42.648;23.270;2023-12-29T14:04:17;8.07;;;5.30;;
1020;SDS011;499;42.648;23.270;2023-12-29T14:07:36;11.40;;;6.73;;
1020;SDS011;499;42.648;23.270;2023-12-29T14:10:51;15.77;;;9.93;;
1020;SDS011;499;42.648;23.270;2023-12-29T14:14:08;38.60;;;19.13;;
1020;SDS011;499;42.648;23.270;2023-12-29T14:17:28;19.27;;;12.57;;
1020;SDS011;499;42.648;23.270;2023-12-29T14:20:37;10.03;;;7.17;;
1020;SDS011;499;42.648;23.270;2023-12-29T14:23:32;7.90;;;5.80;;
1020;SDS011;499;42.648;23.270;2023-12-29T14:26:27;10.20;;;5.53;;
1020;SDS011;499;42.648;23.270;2023-12-29T14:32:58;6.73;;;6.13;;
1020;SDS011;499;42.648;23.270;2023-12-29T14:39:21;9.03;;;6.77;;
1020;SDS011;499;42.648;23.270;2023-12-29T14:43:12;9.30;;;6.80;;
1020;SDS011;499;42.648;23.270;2023-12-29T14:49:20;11.00;;;9.67;;
1020;SDS011;499;42.648;23.270;2023-12-29T14:52:26;10.47;;;7.90;;
1020;SDS011;499;42.648;23.270;2023-12-29T14:55:51;10.90;;;7.83;;
1020;SDS011;499;42.648;23.270;2023-12-29T15:06:13;11.60;;;8.77;;
1020;SDS011;499;42.648;23.270;2023-12-29T15:09:15;64.27;;;37.83;;
1020;SDS011;499;42.648;23.270;2023-12-29T15:15:32;26.13;;;18.30;;
1020;SDS011;499;42.648;23.270;2023-12-29T15:18:49;16.77;;;13.97;;
1020;SDS011;499;42.648;23.270;2023-12-29T15:25:50;11.97;;;10.43;;
1020;SDS011;499;42.648;23.270;2023-12-29T15:29:01;11.07;;;7.20;;
1020;SDS011;499;42.648;23.270;2023-12-29T15:32:49;8.80;;;7.40;;
1020;SDS011;499;42.648;23.270;2023-12-29T15:36:03;13.90;;;10.37;;
1020;SDS011;499;42.648;23.270;2023-12-29T15:42:38;9.60;;;6.80;;
1020;SDS011;499;42.648;23.270;2023-12-29T15:45:44;10.70;;;8.53;;
1020;SDS011;499;42.648;23.270;2023-12-29T15:48:32;23.60;;;16.23;;
1020;SDS011;499;42.648;23.270;2023-12-29T15:51:23;16.10;;;13.37;;
1020;SDS011;499;42.648;23.270;2023-12-29T16:01:34;15.73;;;12.07;;
1020;SDS011;499;42.648;23.270;2023-12-29T16:04:51;16.50;;;13.50;;
1020;SDS011;499;42.648;23.270;2023-12-29T16:08:12;10.83;;;9.73;;
1020;SDS011;499;42.648;23.270;2023-12-29T16:11:24;13.47;;;10.77;;
1020;SDS011;499;42.648;23.270;2023-12-29T16:21:17;20.10;;;14.50;;
1020;SDS011;499;42.648;23.270;2023-12-29T16:24:26;13.20;;;9.40;;
1020;SDS011;499;42.648;23.270;2023-12-29T16:27:34;17.63;;;12.80;;
1020;SDS011;499;42.648;23.270;2023-12-29T16:30:31;20.43;;;15.00;;
1020;SDS011;499;42.648;23.270;2023-12-29T16:33:59;14.73;;;8.07;;
1020;SDS011;499;42.648;23.270;2023-12-29T16:40:26;10.90;;;9.40;;
1020;SDS011;499;42.648;23.270;2023-12-29T16:43:46;40.17;;;19.37;;
1020;SDS011;499;42.648;23.270;2023-12-29T16:50:00;19.33;;;12.67;;
1020;SDS011;499;42.648;23.270;2023-12-29T16:52:50;17.47;;;10.63;;
1020;SDS011;499;42.648;23.270;2023-12-29T16:59:08;19.50;;;16.20;;
1020;SDS011;499;42.648;23.270;2023-12-29T17:02:02;21.27;;;18.93;;
1020;SDS011;499;42.648;23.270;2023-12-29T17:08:42;23.23;;;14.13;;
1020;SDS011;499;42.648;23.270;2023-12-29T17:11:40;20.20;;;13.47;;
1020;SDS011;499;42.648;23.270;2023-12-29T17:15:00;17.43;;;15.47;;
1020;SDS011;499;42.648;23.270;2023-12-29T17:21:55;26.43;;;15.90;;
1020;SDS011;499;42.648;23.270;2023-12-29T17:24:51;10.60;;;7.93;;
1020;SDS011;499;42.648;23.270;2023-12-29T17:27:39;25.83;;;16.70;;
1020;SDS011;499;42.648;23.270;2023-12-29T17:30:18;29.73;;;19.57;;
1020;SDS011;499;42.648;23.270;2023-12-29T17:32:49;27.40;;;17.70;;
1020;SDS011;499;42.648;23.270;2023-12-29T17:35:32;25.07;;;16.47;;
1020;SDS011;499;42.648;23.270;2023-12-29T17:38:10;22.80;;;15.03;;
1020;SDS011;499;42.648;23.270;2023-12-29T17:40:46;25.53;;;17.20;;
1020;SDS011;499;42.648;23.270;2023-12-29T17:43:16;33.83;;;16.50;;
1020;SDS011;499;42.648;23.270;2023-12-29T17:45:57;31.13;;;18.30;;
1020;SDS011;499;42.648;23.270;2023-12-29T17:48:47;34.73;;;21.90;;
1020;SDS011;499;42.648;23.270;2023-12-29T17:51:30;18.83;;;15.00;;
1020;SDS011;499;42.648;23.270;2023-12-29T17:54:31;23.20;;;13.77;;
1020;SDS011;499;42.648;23.270;2023-12-29T17:57:06;34.87;;;17.77;;
1020;SDS011;499;42.648;23.270;2023-12-29T17:59:39;22.83;;;17.70;;
1020;SDS011;499;42.648;23.270;2023-12-29T18:02:17;21.93;;;14.87;;
1020;SDS011;499;42.648;23.270;2023-12-29T18:04:58;16.13;;;11.07;;
1020;SDS011;499;42.648;23.270;2023-12-29T18:07:39;13.13;;;9.43;;
1020;SDS011;499;42.648;23.270;2023-12-29T18:16:58;14.50;;;9.00;;
1020;SDS011;499;42.648;23.270;2023-12-29T18:19:51;9.33;;;7.47;;
1020;SDS011;499;42.648;23.270;2023-12-29T18:22:52;7.00;;;6.10;;
1020;SDS011;499;42.648;23.270;2023-12-29T18:25:41;9.50;;;7.50;;
1020;SDS011;499;42.648;23.270;2023-12-29T18:35:03;8.17;;;5.70;;
1020;SDS011;499;42.648;23.270;2023-12-29T18:44:41;10.43;;;8.10;;
1020;SDS011;499;42.648;23.270;2023-12-29T18:47:29;11.63;;;8.20;;
1020;SDS011;499;42.648;23.270;2023-12-29T18:50:21;9.40;;;6.63;;
1020;SDS011;499;42.648;23.270;2023-12-29T18:53:03;10.00;;;8.50;;
1020;SDS011;499;42.648;23.270;2023-12-29T18:55:37;13.83;;;9.40;;
1020;SDS011;499;42.648;23.270;2023-12-29T18:58:16;11.37;;;8.23;;
1020;SDS011;499;42.648;23.270;2023-12-29T19:00:59;10.10;;;7.40;;
1020;SDS011;499;42.648;23.270;2023-12-29T19:03:40;10.30;;;8.00;;
1020;SDS011;499;42.648;23.270;2023-12-29T19:06:29;13.40;;;8.27;;
1020;SDS011;499;42.648;23.270;2023-12-29T19:12:45;19.23;;;12.80;;
1020;SDS011;499;42.648;23.270;2023-12-29T19:22:56;10.83;;;6.87;;
1020;SDS011;499;42.648;23.270;2023-12-29T19:25:54;7.53;;;5.47;;
1020;SDS011;499;42.648;23.270;2023-12-29T19:28:58;6.60;;;5.20;;
1020;SDS011;499;42.648;23.270;2023-12-29T19:32:15;6.20;;;5.20;;
1020;SDS011;499;42.648;23.270;2023-12-29T19:35:32;5.53;;;4.90;;
1020;SDS011;499;42.648;23.270;2023-12-29T19:38:40;8.57;;;7.67;;
1020;SDS011;499;42.648;23.270;2023-12-29T19:41:34;6.47;;;5.13;;
1020;SDS011;499;42.648;23.270;2023-12-29T19:44:33;8.10;;;6.13;;
1020;SDS011;499;42.648;23.270;2023-12-29T19:47:15;6.20;;;5.30;;
1020;SDS011;499;42.648;23.270;2023-12-29T19:55:53;7.73;;;5.83;;
1020;SDS011;499;42.648;23.270;2023-12-29T19:59:01;7.93;;;6.20;;
1020;SDS011;499;42.648;23.270;2023-12-29T20:02:04;12.57;;;8.37;;
1020;SDS011;499;42.648;23.270;2023-12-29T20:08:14;7.80;;;5.87;;
1020;SDS011;499;42.648;23.270;2023-12-29T20:11:26;9.00;;;7.00;;
1020;SDS011;499;42.648;23.270;2023-12-29T20:14:21;15.33;;;12.20;;
1020;SDS011;499;42.648;23.270;2023-12-29T20:17:21;6.27;;;5.67;;
1020;SDS011;499;42.648;23.270;2023-12-29T20:20:31;6.03;;;4.73;;
1020;SDS011;499;42.648;23.270;2023-12-29T20:23:48;13.73;;;9.53;;
1020;SDS011;499;42.648;23.270;2023-12-29T20:30:12;10.60;;;8.40;;
1020;SDS011;499;42.648;23.270;2023-12-29T20:40:10;6.87;;;5.33;;
1020;SDS011;499;42.648;23.270;2023-12-29T20:43:04;6.00;;;5.00;;
1020;SDS011;499;42.648;23.270;2023-12-29T20:45:53;5.87;;;5.23;;
1020;SDS011;499;42.648;23.270;2023-12-29T20:48:58;5.37;;;4.53;;
1020;SDS011;499;42.648;23.270;2023-12-29T20:52:14;7.47;;;4.53;;
1020;SDS011;499;42.648;23.270;2023-12-29T20:54:59;6.80;;;4.33;;
1020;SDS011;499;42.648;23.270;2023-12-29T21:01:57;9.63;;;4.80;;
1020;SDS011;499;42.648;23.270;2023-12-29T21:05:05;7.03;;;4.37;;
1020;SDS011;499;42.648;23.270;2023-12-29T21:07:58;11.77;;;7.67;;
1020;SDS011;499;42.648;23.270;2023-12-29T21:10:39;8.13;;;4.97;;
1020;SDS011;499;42.648;23.270;2023-12-29T21:13:29;12.10;;;6.00;;
1020;SDS011;499;42.648;23.270;2023-12-29T21:22:42;19.23;;;8.63;;
1020;SDS011;499;42.648;23.270;2023-12-29T21:25:38;8.90;;;6.37;;
1020;SDS011;499;42.648;23.270;2023-12-29T21:28:36;6.20;;;5.20;;
1020;SDS011;499;42.648;23.270;2023-12-29T21:31:33;7.10;;;4.47;;
1020;SDS011;499;42.648;23.270;2023-12-29T21:34:56;4.10;;;3.70;;
1020;SDS011;499;42.648;23.270;2023-12-29T21:38:06;4.90;;;3.73;;
1020;SDS011;499;42.648;23.270;2023-12-29T21:40:38;5.17;;;3.57;;
1020;SDS011;499;42.648;23.270;2023-12-29T21:43:24;4.17;;;3.80;;
1020;SDS011;499;42.648;23.270;2023-12-29T21:46:24;5.20;;;4.10;;
1020;SDS011;499;42.648;23.270;2023-12-29T21:49:30;6.70;;;4.50;;
1020;SDS011;499;42.648;23.270;2023-12-29T21:55:49;5.60;;;4.00;;
1020;SDS011;499;42.648;23.270;2023-12-29T22:02:01;6.60;;;4.13;;
1020;SDS011;499;42.648;23.270;2023-12-29T22:05:05;4.80;;;3.30;;
1020;SDS011;499;42.648;23.270;2023-12-29T22:24:33;4.90;;;4.40;;
1020;SDS011;499;42.648;23.270;2023-12-29T22:27:26;4.43;;;3.97;;
1020;SDS011;499;42.648;23.270;2023-12-29T22:30:22;15.53;;;12.00;;
1020;SDS011;499;42.648;23.270;2023-12-29T22:33:17;20.50;;;13.60;;
1020;SDS011;499;42.648;23.270;2023-12-29T22:36:11;17.53;;;12.80;;
1020;SDS011;499;42.648;23.270;2023-12-29T22:39:11;16.17;;;10.33;;
1020;SDS011;499;42.648;23.270;2023-12-29T22:45:13;8.73;;;6.80;;
1020;SDS011;499;42.648;23.270;2023-12-29T22:51:03;10.97;;;8.90;;
1020;SDS011;499;42.648;23.270;2023-12-29T22:54:05;12.90;;;9.33;;
1020;SDS011;499;42.648;23.270;2023-12-29T22:58:48;22.60;;;15.03;;
1020;SDS011;499;42.648;23.270;2023-12-29T23:01:53;12.73;;;9.50;;
1020;SDS011;499;42.648;23.270;2023-12-29T23:04:41;16.90;;;11.83;;
1020;SDS011;499;42.648;23.270;2023-12-29T23:07:34;15.10;;;11.67;;
1020;SDS011;499;42.648;23.270;2023-12-29T23:10:15;13.83;;;10.83;;
1020;SDS011;499;42.648;23.270;2023-12-29T23:13:18;13.97;;;9.83;;
1020;SDS011;499;42.648;23.270;2023-12-29T23:16:33;11.03;;;7.83;;
1020;SDS011;499;42.648;23.270;2023-12-29T23:22:36;10.63;;;7.27;;
1020;SDS011;499;42.648;23.270;2023-12-29T23:25:42;8.73;;;6.57;;
1020;SDS011;499;42.648;23.270;2023-12-29T23:28:59;8.57;;;5.80;;
1020;SDS011;499;42.648;23.270;2023-12-29T23:39:05;10.80;;;9.10;;
1020;SDS011;499;42.648;23.270;2023-12-29T23:42:19;8.77;;;7.70;;
1020;SDS011;499;42.648;23.270;2023-12-29T23:55:20;6.97;;;4.87;;
1020;SDS011;499;42.648;23.270;2023-12-29T23:58:27;8.23;;;6.80;;
